sensor_id;sensor_type;location;lat;lon;timestamp;temperature;humidity
35531;DHT22;21637;53.352;-6.356;2022-09-13T00:01:24;12.40;99.90
35531;DHT22;21637;53.352;-6.356;2022-09-13T00:03:49;12.30;99.90
35531;DHT22;21637;53.352;-6.356;2022-09-13T00:06:16;12.30;99.90
35531;DHT22;21637;53.352;-6.356;2022-09-13T00:08:43;12.20;99.90
35531;DHT22;21637;53.352;-6.356;2022-09-13T00:11:13;12.10;99.90
35531;DHT22;21637;53.352;-6.356;2022-09-13T00:13:39;12.10;99.90
35531;DHT22;21637;53.352;-6.356;2022-09-13T00:16:04;12.00;99.90
35531;DHT22;21637;53.352;-6.356;2022-09-13T00:18:35;12.00;99.90
35531;DHT22;21637;53.352;-6.356;2022-09-13T00:21:07;11.90;99.90
35531;DHT22;21637;53.352;-6.356;2022-09-13T00:23:34;11.90;99.90
35531;DHT22;21637;53.352;-6.356;2022-09-13T00:26:18;11.90;99.90
35531;DHT22;21637;53.352;-6.356;2022-09-13T00:28:44;11.90;99.90
35531;DHT22;21637;53.352;-6.356;2022-09-13T00:31:10;11.80;99.90
35531;DHT22;21637;53.352;-6.356;2022-09-13T00:33:36;11.80;99.90
35531;DHT22;21637;53.352;-6.356;2022-09-13T00:36:05;11.80;99.90
35531;DHT22;21637;53.352;-6.356;2022-09-13T00:38:33;11.70;99.90
35531;DHT22;21637;53.352;-6.356;2022-09-13T00:40:59;11.70;99.90
35531;DHT22;21637;53.352;-6.356;2022-09-13T00:43:44;11.70;99.90
35531;DHT22;21637;53.352;-6.356;2022-09-13T00:46:15;11.70;99.90
35531;DHT22;21637;53.352;-6.356;2022-09-13T00:48:42;11.70;99.90
35531;DHT22;21637;53.352;-6.356;2022-09-13T00:51:08;11.70;99.90
35531;DHT22;21637;53.352;-6.356;2022-09-13T00:53:35;11.60;99.90
35531;DHT22;21637;53.352;-6.356;2022-09-13T00:56:07;11.60;99.90
35531;DHT22;21637;53.352;-6.356;2022-09-13T00:58:42;11.60;99.90
35531;DHT22;21637;53.352;-6.356;2022-09-13T01:01:09;11.50;99.90
35531;DHT22;21637;53.352;-6.356;2022-09-13T01:03:35;11.50;99.90
35531;DHT22;21637;53.352;-6.356;2022-09-13T01:08:30;11.50;99.90
35531;DHT22;21637;53.352;-6.356;2022-09-13T01:10:57;11.50;99.90
35531;DHT22;21637;53.352;-6.356;2022-09-13T01:13:30;11.50;99.90
35531;DHT22;21637;53.352;-6.356;2022-09-13T01:15:57;11.40;99.90
35531;DHT22;21637;53.352;-6.356;2022-09-13T01:18:23;11.50;99.90
35531;DHT22;21637;53.352;-6.356;2022-09-13T01:26:21;11.40;99.90
35531;DHT22;21637;53.352;-6.356;2022-09-13T01:29:27;11.30;99.90
35531;DHT22;21637;53.352;-6.356;2022-09-13T01:36:50;11.30;99.90
35531;DHT22;21637;53.352;-6.356;2022-09-13T01:39:21;11.30;99.90
35531;DHT22;21637;53.352;-6.356;2022-09-13T01:44:33;11.20;99.90
35531;DHT22;21637;53.352;-6.356;2022-09-13T01:52:24;11.20;99.90
35531;DHT22;21637;53.352;-6.356;2022-09-13T02:00:21;11.20;99.90
35531;DHT22;21637;53.352;-6.356;2022-09-13T02:07:37;11.10;99.90
35531;DHT22;21637;53.352;-6.356;2022-09-13T02:10:06;11.10;99.90
35531;DHT22;21637;53.352;-6.356;2022-09-13T02:12:33;11.10;99.90
35531;DHT22;21637;53.352;-6.356;2022-09-13T02:15:07;11.10;99.90
35531;DHT22;21637;53.352;-6.356;2022-09-13T02:17:36;11.10;99.90
35531;DHT22;21637;53.352;-6.356;2022-09-13T02:20:12;11.00;99.90
35531;DHT22;21637;53.352;-6.356;2022-09-13T02:22:42;10.90;99.90
35531;DHT22;21637;53.352;-6.356;2022-09-13T02:25:09;10.90;99.90
35531;DHT22;21637;53.352;-6.356;2022-09-13T02:27:36;11.00;99.90
35531;DHT22;21637;53.352;-6.356;2022-09-13T02:30:06;11.00;99.90
35531;DHT22;21637;53.352;-6.356;2022-09-13T02:35:05;10.90;99.90
35531;DHT22;21637;53.352;-6.356;2022-09-13T02:37:33;10.90;99.90
35531;DHT22;21637;53.352;-6.356;2022-09-13T02:40:00;10.90;99.90
35531;DHT22;21637;53.352;-6.356;2022-09-13T02:42:33;10.90;99.90
35531;DHT22;21637;53.352;-6.356;2022-09-13T02:45:00;10.90;99.90
35531;DHT22;21637;53.352;-6.356;2022-09-13T02:52:22;10.80;99.90
35531;DHT22;21637;53.352;-6.356;2022-09-13T02:57:32;10.80;99.90
35531;DHT22;21637;53.352;-6.356;2022-09-13T03:00:01;10.80;99.90
35531;DHT22;21637;53.352;-6.356;2022-09-13T03:02:27;10.70;99.90
35531;DHT22;21637;53.352;-6.356;2022-09-13T03:04:55;10.70;99.90
35531;DHT22;21637;53.352;-6.356;2022-09-13T03:07:21;10.70;99.90
35531;DHT22;21637;53.352;-6.356;2022-09-13T03:09:52;10.70;99.90
35531;DHT22;21637;53.352;-6.356;2022-09-13T03:15:10;10.50;99.90
35531;DHT22;21637;53.352;-6.356;2022-09-13T03:17:55;10.50;99.90
35531;DHT22;21637;53.352;-6.356;2022-09-13T03:23:07;10.40;99.90
35531;DHT22;21637;53.352;-6.356;2022-09-13T03:31:04;10.40;99.90
35531;DHT22;21637;53.352;-6.356;2022-09-13T03:33:43;10.40;99.90
35531;DHT22;21637;53.352;-6.356;2022-09-13T03:36:12;10.40;99.90
35531;DHT22;21637;53.352;-6.356;2022-09-13T03:38:44;10.30;99.90
35531;DHT22;21637;53.352;-6.356;2022-09-13T03:41:14;10.40;99.90
35531;DHT22;21637;53.352;-6.356;2022-09-13T03:43:53;10.30;99.90
35531;DHT22;21637;53.352;-6.356;2022-09-13T03:48:49;10.30;99.90
35531;DHT22;21637;53.352;-6.356;2022-09-13T03:51:15;10.30;99.90
35531;DHT22;21637;53.352;-6.356;2022-09-13T03:53:42;10.10;99.90
35531;DHT22;21637;53.352;-6.356;2022-09-13T03:56:13;10.10;99.90
35531;DHT22;21637;53.352;-6.356;2022-09-13T03:58:39;10.10;99.90
35531;DHT22;21637;53.352;-6.356;2022-09-13T04:01:04;10.10;99.90
35531;DHT22;21637;53.352;-6.356;2022-09-13T04:03:30;10.00;99.90
35531;DHT22;21637;53.352;-6.356;2022-09-13T04:05:56;10.00;99.90
35531;DHT22;21637;53.352;-6.356;2022-09-13T04:08:21;10.00;99.90
35531;DHT22;21637;53.352;-6.356;2022-09-13T04:10:48;9.90;99.90
35531;DHT22;21637;53.352;-6.356;2022-09-13T04:13:14;9.90;99.90
35531;DHT22;21637;53.352;-6.356;2022-09-13T04:15:40;9.90;99.90
35531;DHT22;21637;53.352;-6.356;2022-09-13T04:18:05;9.80;99.90
35531;DHT22;21637;53.352;-6.356;2022-09-13T04:20:31;9.80;99.90
35531;DHT22;21637;53.352;-6.356;2022-09-13T04:22:56;9.80;99.90
35531;DHT22;21637;53.352;-6.356;2022-09-13T04:25:23;9.90;99.90
35531;DHT22;21637;53.352;-6.356;2022-09-13T04:27:55;9.80;99.90
35531;DHT22;21637;53.352;-6.356;2022-09-13T04:30:22;9.80;99.90
35531;DHT22;21637;53.352;-6.356;2022-09-13T04:32:48;9.80;99.90
35531;DHT22;21637;53.352;-6.356;2022-09-13T04:35:14;9.80;99.90
35531;DHT22;21637;53.352;-6.356;2022-09-13T04:37:44;9.80;99.90
35531;DHT22;21637;53.352;-6.356;2022-09-13T04:40:10;9.80;99.90
35531;DHT22;21637;53.352;-6.356;2022-09-13T04:42:35;9.70;99.90
35531;DHT22;21637;53.352;-6.356;2022-09-13T04:45:01;9.70;99.90
35531;DHT22;21637;53.352;-6.356;2022-09-13T04:47:27;9.70;99.90
35531;DHT22;21637;53.352;-6.356;2022-09-13T04:49:52;9.70;99.90
35531;DHT22;21637;53.352;-6.356;2022-09-13T04:52:18;9.70;99.90
35531;DHT22;21637;53.352;-6.356;2022-09-13T04:54:44;9.60;99.90
35531;DHT22;21637;53.352;-6.356;2022-09-13T04:57:13;9.60;99.90
35531;DHT22;21637;53.352;-6.356;2022-09-13T04:59:38;9.60;99.90
35531;DHT22;21637;53.352;-6.356;2022-09-13T05:02:04;9.60;99.90
35531;DHT22;21637;53.352;-6.356;2022-09-13T05:04:29;9.50;99.90
35531;DHT22;21637;53.352;-6.356;2022-09-13T05:06:55;9.60;99.90
35531;DHT22;21637;53.352;-6.356;2022-09-13T05:09:23;9.60;99.90
35531;DHT22;21637;53.352;-6.356;2022-09-13T05:11:49;9.60;99.90
35531;DHT22;21637;53.352;-6.356;2022-09-13T05:14:14;9.60;99.90
35531;DHT22;21637;53.352;-6.356;2022-09-13T05:16:40;9.60;99.90
35531;DHT22;21637;53.352;-6.356;2022-09-13T05:19:05;9.60;99.90
35531;DHT22;21637;53.352;-6.356;2022-09-13T05:21:31;9.50;99.90
35531;DHT22;21637;53.352;-6.356;2022-09-13T05:23:57;9.60;99.90
35531;DHT22;21637;53.352;-6.356;2022-09-13T05:26:24;9.60;99.90
35531;DHT22;21637;53.352;-6.356;2022-09-13T05:28:50;9.50;99.90
35531;DHT22;21637;53.352;-6.356;2022-09-13T05:31:19;9.60;99.90
35531;DHT22;21637;53.352;-6.356;2022-09-13T05:33:46;9.50;99.90
35531;DHT22;21637;53.352;-6.356;2022-09-13T05:36:11;9.50;99.90
35531;DHT22;21637;53.352;-6.356;2022-09-13T05:38:37;9.50;99.90
35531;DHT22;21637;53.352;-6.356;2022-09-13T05:41:03;9.60;99.90
35531;DHT22;21637;53.352;-6.356;2022-09-13T05:43:30;9.60;99.90
35531;DHT22;21637;53.352;-6.356;2022-09-13T05:46:15;9.50;99.90
35531;DHT22;21637;53.352;-6.356;2022-09-13T05:48:41;9.50;99.90
35531;DHT22;21637;53.352;-6.356;2022-09-13T05:51:10;9.50;99.90
35531;DHT22;21637;53.352;-6.356;2022-09-13T05:53:36;9.50;99.90
35531;DHT22;21637;53.352;-6.356;2022-09-13T05:56:04;9.50;99.90
35531;DHT22;21637;53.352;-6.356;2022-09-13T05:58:30;9.50;99.90
35531;DHT22;21637;53.352;-6.356;2022-09-13T06:00:55;9.50;99.90
35531;DHT22;21637;53.352;-6.356;2022-09-13T06:03:21;9.50;99.90
35531;DHT22;21637;53.352;-6.356;2022-09-13T06:05:47;9.60;99.90
35531;DHT22;21637;53.352;-6.356;2022-09-13T06:08:13;9.60;99.90
35531;DHT22;21637;53.352;-6.356;2022-09-13T06:10:38;9.50;99.90
35531;DHT22;21637;53.352;-6.356;2022-09-13T06:13:04;9.60;99.90
35531;DHT22;21637;53.352;-6.356;2022-09-13T06:15:30;9.60;99.90
35531;DHT22;21637;53.352;-6.356;2022-09-13T06:17:55;9.60;99.90
35531;DHT22;21637;53.352;-6.356;2022-09-13T06:20:21;9.70;99.90
35531;DHT22;21637;53.352;-6.356;2022-09-13T06:22:47;9.70;99.90
35531;DHT22;21637;53.352;-6.356;2022-09-13T06:25:12;9.70;99.90
35531;DHT22;21637;53.352;-6.356;2022-09-13T06:27:38;9.80;99.90
35531;DHT22;21637;53.352;-6.356;2022-09-13T06:30:04;9.70;99.90
35531;DHT22;21637;53.352;-6.356;2022-09-13T06:32:31;9.80;99.90
35531;DHT22;21637;53.352;-6.356;2022-09-13T06:34:56;9.90;99.90
35531;DHT22;21637;53.352;-6.356;2022-09-13T06:37:22;9.90;99.90
35531;DHT22;21637;53.352;-6.356;2022-09-13T06:39:48;10.00;99.90
35531;DHT22;21637;53.352;-6.356;2022-09-13T06:42:13;10.00;99.90
35531;DHT22;21637;53.352;-6.356;2022-09-13T06:44:39;10.00;99.90
35531;DHT22;21637;53.352;-6.356;2022-09-13T06:47:04;10.00;99.90
35531;DHT22;21637;53.352;-6.356;2022-09-13T06:49:30;10.10;99.90
35531;DHT22;21637;53.352;-6.356;2022-09-13T06:51:56;10.30;99.90
35531;DHT22;21637;53.352;-6.356;2022-09-13T06:54:21;10.40;99.90
35531;DHT22;21637;53.352;-6.356;2022-09-13T06:56:47;10.50;99.90
35531;DHT22;21637;53.352;-6.356;2022-09-13T06:59:13;10.60;99.90
35531;DHT22;21637;53.352;-6.356;2022-09-13T07:01:39;10.60;99.90
35531;DHT22;21637;53.352;-6.356;2022-09-13T07:04:06;10.60;99.90
35531;DHT22;21637;53.352;-6.356;2022-09-13T07:06:36;10.60;99.90
35531;DHT22;21637;53.352;-6.356;2022-09-13T07:09:03;10.60;99.90
35531;DHT22;21637;53.352;-6.356;2022-09-13T07:11:31;10.60;99.90
35531;DHT22;21637;53.352;-6.356;2022-09-13T07:13:57;10.70;99.90
35531;DHT22;21637;53.352;-6.356;2022-09-13T07:16:24;10.90;99.90
35531;DHT22;21637;53.352;-6.356;2022-09-13T07:18:59;10.90;99.90
35531;DHT22;21637;53.352;-6.356;2022-09-13T07:21:26;11.00;99.90
35531;DHT22;21637;53.352;-6.356;2022-09-13T07:23:52;11.10;99.90
35531;DHT22;21637;53.352;-6.356;2022-09-13T07:26:18;11.20;99.90
35531;DHT22;21637;53.352;-6.356;2022-09-13T07:28:45;11.30;99.90
35531;DHT22;21637;53.352;-6.356;2022-09-13T07:31:12;11.40;99.90
35531;DHT22;21637;53.352;-6.356;2022-09-13T07:33:38;11.50;99.90
35531;DHT22;21637;53.352;-6.356;2022-09-13T07:36:04;11.50;99.90
35531;DHT22;21637;53.352;-6.356;2022-09-13T07:38:31;11.70;99.90
35531;DHT22;21637;53.352;-6.356;2022-09-13T07:40:57;11.70;99.90
35531;DHT22;21637;53.352;-6.356;2022-09-13T07:43:27;11.80;99.90
35531;DHT22;21637;53.352;-6.356;2022-09-13T07:45:56;11.90;99.90
35531;DHT22;21637;53.352;-6.356;2022-09-13T07:48:22;11.90;99.90
35531;DHT22;21637;53.352;-6.356;2022-09-13T07:53:23;12.10;99.90
35531;DHT22;21637;53.352;-6.356;2022-09-13T07:55:48;12.30;99.90
35531;DHT22;21637;53.352;-6.356;2022-09-13T07:58:14;12.40;99.90
35531;DHT22;21637;53.352;-6.356;2022-09-13T08:00:39;12.50;99.90
35531;DHT22;21637;53.352;-6.356;2022-09-13T08:03:06;12.60;99.90
35531;DHT22;21637;53.352;-6.356;2022-09-13T08:05:32;12.70;99.90
35531;DHT22;21637;53.352;-6.356;2022-09-13T08:07:57;12.80;99.90
35531;DHT22;21637;53.352;-6.356;2022-09-13T08:10:23;12.90;99.90
35531;DHT22;21637;53.352;-6.356;2022-09-13T08:12:48;13.00;99.90
35531;DHT22;21637;53.352;-6.356;2022-09-13T08:15:14;13.00;99.90
35531;DHT22;21637;53.352;-6.356;2022-09-13T08:17:39;13.10;99.90
35531;DHT22;21637;53.352;-6.356;2022-09-13T08:20:05;13.20;99.90
35531;DHT22;21637;53.352;-6.356;2022-09-13T08:22:31;13.30;99.90
35531;DHT22;21637;53.352;-6.356;2022-09-13T08:24:56;13.40;99.90
35531;DHT22;21637;53.352;-6.356;2022-09-13T08:27:22;13.40;99.90
35531;DHT22;21637;53.352;-6.356;2022-09-13T08:29:47;13.50;99.90
35531;DHT22;21637;53.352;-6.356;2022-09-13T08:32:13;13.50;99.90
35531;DHT22;21637;53.352;-6.356;2022-09-13T08:34:39;13.60;99.90
35531;DHT22;21637;53.352;-6.356;2022-09-13T08:37:04;13.60;99.90
35531;DHT22;21637;53.352;-6.356;2022-09-13T08:39:30;13.70;99.90
35531;DHT22;21637;53.352;-6.356;2022-09-13T08:41:58;13.90;99.90
35531;DHT22;21637;53.352;-6.356;2022-09-13T08:44:29;14.00;99.90
35531;DHT22;21637;53.352;-6.356;2022-09-13T08:49:45;14.10;99.90
35531;DHT22;21637;53.352;-6.356;2022-09-13T08:54:43;14.20;99.90
35531;DHT22;21637;53.352;-6.356;2022-09-13T08:57:16;14.20;99.90
35531;DHT22;21637;53.352;-6.356;2022-09-13T09:07:23;14.50;99.90
35531;DHT22;21637;53.352;-6.356;2022-09-13T09:12:24;14.60;99.90
35531;DHT22;21637;53.352;-6.356;2022-09-13T09:14:57;14.60;99.90
35531;DHT22;21637;53.352;-6.356;2022-09-13T09:17:38;14.50;99.90
35531;DHT22;21637;53.352;-6.356;2022-09-13T09:22:33;14.60;99.90
35531;DHT22;21637;53.352;-6.356;2022-09-13T09:25:00;14.70;99.90
35531;DHT22;21637;53.352;-6.356;2022-09-13T09:27:28;14.60;99.90
35531;DHT22;21637;53.352;-6.356;2022-09-13T09:29:54;14.80;99.90
35531;DHT22;21637;53.352;-6.356;2022-09-13T09:37:35;14.90;99.90
35531;DHT22;21637;53.352;-6.356;2022-09-13T09:40:02;15.00;99.90
35531;DHT22;21637;53.352;-6.356;2022-09-13T09:42:34;15.00;99.90
35531;DHT22;21637;53.352;-6.356;2022-09-13T09:45:04;15.10;99.90
35531;DHT22;21637;53.352;-6.356;2022-09-13T09:47:33;15.10;99.90
35531;DHT22;21637;53.352;-6.356;2022-09-13T09:50:10;15.10;99.90
35531;DHT22;21637;53.352;-6.356;2022-09-13T09:52:48;15.30;99.90
35531;DHT22;21637;53.352;-6.356;2022-09-13T09:57:58;15.20;99.90
35531;DHT22;21637;53.352;-6.356;2022-09-13T10:00:26;15.20;99.90
35531;DHT22;21637;53.352;-6.356;2022-09-13T10:02:55;15.20;99.90
35531;DHT22;21637;53.352;-6.356;2022-09-13T10:05:21;15.30;99.90
35531;DHT22;21637;53.352;-6.356;2022-09-13T10:07:59;15.20;99.90
35531;DHT22;21637;53.352;-6.356;2022-09-13T10:10:28;15.30;99.90
35531;DHT22;21637;53.352;-6.356;2022-09-13T10:12:55;15.30;99.90
35531;DHT22;21637;53.352;-6.356;2022-09-13T10:15:25;15.30;99.90
35531;DHT22;21637;53.352;-6.356;2022-09-13T10:18:04;15.50;99.90
35531;DHT22;21637;53.352;-6.356;2022-09-13T10:20:30;15.60;99.90
35531;DHT22;21637;53.352;-6.356;2022-09-13T10:25:35;15.70;99.90
35531;DHT22;21637;53.352;-6.356;2022-09-13T10:28:01;15.70;99.90
35531;DHT22;21637;53.352;-6.356;2022-09-13T10:30:32;15.70;99.90
35531;DHT22;21637;53.352;-6.356;2022-09-13T10:33:01;15.70;99.90
35531;DHT22;21637;53.352;-6.356;2022-09-13T10:35:27;15.60;99.90
35531;DHT22;21637;53.352;-6.356;2022-09-13T10:37:53;15.60;99.90
35531;DHT22;21637;53.352;-6.356;2022-09-13T10:42:52;15.70;99.90
35531;DHT22;21637;53.352;-6.356;2022-09-13T10:45:22;15.60;99.90
35531;DHT22;21637;53.352;-6.356;2022-09-13T10:47:49;15.50;99.90
35531;DHT22;21637;53.352;-6.356;2022-09-13T10:52:54;15.60;99.90
35531;DHT22;21637;53.352;-6.356;2022-09-13T10:55:27;15.60;99.90
35531;DHT22;21637;53.352;-6.356;2022-09-13T11:00:23;15.60;99.90
35531;DHT22;21637;53.352;-6.356;2022-09-13T11:08:35;15.60;99.90
35531;DHT22;21637;53.352;-6.356;2022-09-13T11:16:28;15.50;99.90
35531;DHT22;21637;53.352;-6.356;2022-09-13T11:19:00;15.50;99.90
35531;DHT22;21637;53.352;-6.356;2022-09-13T11:21:53;15.50;99.90
35531;DHT22;21637;53.352;-6.356;2022-09-13T11:29:32;15.60;99.90
35531;DHT22;21637;53.352;-6.356;2022-09-13T11:37:38;15.60;99.90
35531;DHT22;21637;53.352;-6.356;2022-09-13T11:45:19;15.80;99.90
35531;DHT22;21637;53.352;-6.356;2022-09-13T11:48:05;15.90;99.90
35531;DHT22;21637;53.352;-6.356;2022-09-13T11:55:34;15.90;99.90
35531;DHT22;21637;53.352;-6.356;2022-09-13T11:58:05;16.10;99.90
35531;DHT22;21637;53.352;-6.356;2022-09-13T12:00:51;16.20;99.90
35531;DHT22;21637;53.352;-6.356;2022-09-13T12:03:22;16.30;99.90
35531;DHT22;21637;53.352;-6.356;2022-09-13T12:05:51;16.20;99.90
35531;DHT22;21637;53.352;-6.356;2022-09-13T12:11:08;16.30;99.90
35531;DHT22;21637;53.352;-6.356;2022-09-13T12:13:56;16.40;99.90
35531;DHT22;21637;53.352;-6.356;2022-09-13T12:16:40;16.30;99.90
35531;DHT22;21637;53.352;-6.356;2022-09-13T12:19:15;16.40;99.90
35531;DHT22;21637;53.352;-6.356;2022-09-13T12:21:42;16.40;99.90
35531;DHT22;21637;53.352;-6.356;2022-09-13T12:24:31;16.40;99.90
35531;DHT22;21637;53.352;-6.356;2022-09-13T12:27:00;16.50;99.90
35531;DHT22;21637;53.352;-6.356;2022-09-13T12:29:33;16.40;99.90
35531;DHT22;21637;53.352;-6.356;2022-09-13T12:32:04;16.50;99.90
35531;DHT22;21637;53.352;-6.356;2022-09-13T12:34:33;16.50;99.90
35531;DHT22;21637;53.352;-6.356;2022-09-13T12:37:06;16.60;99.90
35531;DHT22;21637;53.352;-6.356;2022-09-13T12:39:39;16.50;99.90
35531;DHT22;21637;53.352;-6.356;2022-09-13T12:52:29;16.90;99.90
35531;DHT22;21637;53.352;-6.356;2022-09-13T13:00:32;16.80;99.90
35531;DHT22;21637;53.352;-6.356;2022-09-13T13:05:36;16.70;99.90
35531;DHT22;21637;53.352;-6.356;2022-09-13T13:08:03;16.90;99.90
35531;DHT22;21637;53.352;-6.356;2022-09-13T13:10:34;17.00;99.90
35531;DHT22;21637;53.352;-6.356;2022-09-13T13:13:10;17.20;99.90
35531;DHT22;21637;53.352;-6.356;2022-09-13T13:23:34;17.10;99.90
35531;DHT22;21637;53.352;-6.356;2022-09-13T13:31:33;17.10;99.90
35531;DHT22;21637;53.352;-6.356;2022-09-13T13:39:07;17.00;99.90
35531;DHT22;21637;53.352;-6.356;2022-09-13T13:44:00;17.20;99.90
35531;DHT22;21637;53.352;-6.356;2022-09-13T13:46:30;17.30;99.90
35531;DHT22;21637;53.352;-6.356;2022-09-13T13:49:34;17.30;99.90
35531;DHT22;21637;53.352;-6.356;2022-09-13T13:51:42;17.20;99.90
35531;DHT22;21637;53.352;-6.356;2022-09-13T13:56:52;17.30;99.90
35531;DHT22;21637;53.352;-6.356;2022-09-13T13:59:25;17.40;99.90
35531;DHT22;21637;53.352;-6.356;2022-09-13T14:01:52;17.40;99.90
35531;DHT22;21637;53.352;-6.356;2022-09-13T14:07:51;17.40;99.90
35531;DHT22;21637;53.352;-6.356;2022-09-13T14:10:17;17.70;99.90
35531;DHT22;21637;53.352;-6.356;2022-09-13T14:15:20;17.80;99.90
35531;DHT22;21637;53.352;-6.356;2022-09-13T14:18:33;17.70;99.90
35531;DHT22;21637;53.352;-6.356;2022-09-13T14:20:33;17.50;99.90
35531;DHT22;21637;53.352;-6.356;2022-09-13T14:25:58;17.60;99.90
35531;DHT22;21637;53.352;-6.356;2022-09-13T14:28:24;17.70;99.90
35531;DHT22;21637;53.352;-6.356;2022-09-13T14:30:52;17.80;99.90
35531;DHT22;21637;53.352;-6.356;2022-09-13T14:33:22;17.70;99.90
35531;DHT22;21637;53.352;-6.356;2022-09-13T14:35:55;17.70;99.90
35531;DHT22;21637;53.352;-6.356;2022-09-13T14:38:23;17.70;99.90
35531;DHT22;21637;53.352;-6.356;2022-09-13T14:40:50;17.80;99.90
35531;DHT22;21637;53.352;-6.356;2022-09-13T14:43:20;17.80;99.90
35531;DHT22;21637;53.352;-6.356;2022-09-13T14:45:47;17.80;99.90
35531;DHT22;21637;53.352;-6.356;2022-09-13T14:51:01;17.70;99.90
35531;DHT22;21637;53.352;-6.356;2022-09-13T14:53:29;17.80;99.90
35531;DHT22;21637;53.352;-6.356;2022-09-13T14:55:58;18.00;99.90
35531;DHT22;21637;53.352;-6.356;2022-09-13T14:58:47;18.00;99.90
35531;DHT22;21637;53.352;-6.356;2022-09-13T15:01:13;18.00;99.90
35531;DHT22;21637;53.352;-6.356;2022-09-13T15:03:40;17.80;99.90
35531;DHT22;21637;53.352;-6.356;2022-09-13T15:06:06;17.70;99.90
35531;DHT22;21637;53.352;-6.356;2022-09-13T15:10:58;17.60;99.90
35531;DHT22;21637;53.352;-6.356;2022-09-13T15:13:24;17.50;99.90
35531;DHT22;21637;53.352;-6.356;2022-09-13T15:15:49;17.50;99.90
35531;DHT22;21637;53.352;-6.356;2022-09-13T15:20:59;17.50;99.90
35531;DHT22;21637;53.352;-6.356;2022-09-13T15:23:36;17.60;99.90
35531;DHT22;21637;53.352;-6.356;2022-09-13T15:26:04;17.60;99.90
35531;DHT22;21637;53.352;-6.356;2022-09-13T15:28:32;17.70;99.90
35531;DHT22;21637;53.352;-6.356;2022-09-13T15:30:58;18.10;99.90
35531;DHT22;21637;53.352;-6.356;2022-09-13T15:33:26;18.50;99.90
35531;DHT22;21637;53.352;-6.356;2022-09-13T15:36:10;18.60;99.90
35531;DHT22;21637;53.352;-6.356;2022-09-13T15:38:36;18.60;99.90
35531;DHT22;21637;53.352;-6.356;2022-09-13T15:41:12;18.40;99.90
35531;DHT22;21637;53.352;-6.356;2022-09-13T15:43:38;18.30;99.90
35531;DHT22;21637;53.352;-6.356;2022-09-13T15:46:04;18.20;99.90
35531;DHT22;21637;53.352;-6.356;2022-09-13T15:48:31;18.20;99.90
35531;DHT22;21637;53.352;-6.356;2022-09-13T15:51:12;18.20;99.90
35531;DHT22;21637;53.352;-6.356;2022-09-13T15:53:40;18.20;99.90
35531;DHT22;21637;53.352;-6.356;2022-09-13T15:56:06;18.30;99.90
35531;DHT22;21637;53.352;-6.356;2022-09-13T15:58:32;18.50;99.90
35531;DHT22;21637;53.352;-6.356;2022-09-13T16:00:58;18.70;99.90
35531;DHT22;21637;53.352;-6.356;2022-09-13T16:03:24;18.80;99.90
35531;DHT22;21637;53.352;-6.356;2022-09-13T16:05:50;18.80;99.90
35531;DHT22;21637;53.352;-6.356;2022-09-13T16:08:15;18.80;99.90
35531;DHT22;21637;53.352;-6.356;2022-09-13T16:10:41;18.60;99.90
35531;DHT22;21637;53.352;-6.356;2022-09-13T16:13:06;18.40;99.90
35531;DHT22;21637;53.352;-6.356;2022-09-13T16:15:33;18.10;99.90
35531;DHT22;21637;53.352;-6.356;2022-09-13T16:17:58;17.90;99.90
35531;DHT22;21637;53.352;-6.356;2022-09-13T16:20:24;17.80;99.90
35531;DHT22;21637;53.352;-6.356;2022-09-13T16:22:52;17.80;99.90
35531;DHT22;21637;53.352;-6.356;2022-09-13T16:25:17;17.70;99.90
35531;DHT22;21637;53.352;-6.356;2022-09-13T16:27:43;17.80;99.90
35531;DHT22;21637;53.352;-6.356;2022-09-13T16:30:14;17.80;99.90
35531;DHT22;21637;53.352;-6.356;2022-09-13T16:32:40;17.70;99.90
35531;DHT22;21637;53.352;-6.356;2022-09-13T16:35:06;17.60;99.90
35531;DHT22;21637;53.352;-6.356;2022-09-13T16:37:32;17.60;99.90
35531;DHT22;21637;53.352;-6.356;2022-09-13T16:39:57;17.60;99.90
35531;DHT22;21637;53.352;-6.356;2022-09-13T16:42:23;17.60;99.90
35531;DHT22;21637;53.352;-6.356;2022-09-13T16:44:48;17.50;99.90
35531;DHT22;21637;53.352;-6.356;2022-09-13T16:47:15;17.50;99.90
35531;DHT22;21637;53.352;-6.356;2022-09-13T16:49:40;17.40;99.90
35531;DHT22;21637;53.352;-6.356;2022-09-13T16:52:06;17.20;99.90
35531;DHT22;21637;53.352;-6.356;2022-09-13T16:54:32;17.20;99.90
35531;DHT22;21637;53.352;-6.356;2022-09-13T16:56:59;17.20;99.90
35531;DHT22;21637;53.352;-6.356;2022-09-13T16:59:25;17.10;99.90
35531;DHT22;21637;53.352;-6.356;2022-09-13T17:01:51;17.10;99.90
35531;DHT22;21637;53.352;-6.356;2022-09-13T17:04:17;17.00;99.90
35531;DHT22;21637;53.352;-6.356;2022-09-13T17:06:43;16.90;99.90
35531;DHT22;21637;53.352;-6.356;2022-09-13T17:09:08;16.90;99.90
35531;DHT22;21637;53.352;-6.356;2022-09-13T17:11:35;16.80;99.90
35531;DHT22;21637;53.352;-6.356;2022-09-13T17:14:03;16.90;99.90
35531;DHT22;21637;53.352;-6.356;2022-09-13T17:16:36;16.80;99.90
35531;DHT22;21637;53.352;-6.356;2022-09-13T17:19:04;16.80;99.90
35531;DHT22;21637;53.352;-6.356;2022-09-13T17:21:30;16.70;99.90
35531;DHT22;21637;53.352;-6.356;2022-09-13T17:23:57;16.60;99.90
35531;DHT22;21637;53.352;-6.356;2022-09-13T17:26:22;16.60;99.90
35531;DHT22;21637;53.352;-6.356;2022-09-13T17:28:48;16.60;99.90
35531;DHT22;21637;53.352;-6.356;2022-09-13T17:31:14;16.50;99.90
35531;DHT22;21637;53.352;-6.356;2022-09-13T17:33:40;16.40;99.90
35531;DHT22;21637;53.352;-6.356;2022-09-13T17:36:07;16.40;99.90
35531;DHT22;21637;53.352;-6.356;2022-09-13T17:38:33;16.40;99.90
35531;DHT22;21637;53.352;-6.356;2022-09-13T17:41:03;16.30;99.90
35531;DHT22;21637;53.352;-6.356;2022-09-13T17:43:29;16.30;99.90
35531;DHT22;21637;53.352;-6.356;2022-09-13T17:45:55;16.30;99.90
35531;DHT22;21637;53.352;-6.356;2022-09-13T17:48:21;16.30;99.90
35531;DHT22;21637;53.352;-6.356;2022-09-13T17:50:46;16.20;99.90
35531;DHT22;21637;53.352;-6.356;2022-09-13T17:53:12;16.10;99.90
35531;DHT22;21637;53.352;-6.356;2022-09-13T17:55:47;16.10;99.90
35531;DHT22;21637;53.352;-6.356;2022-09-13T17:58:13;16.10;99.90
35531;DHT22;21637;53.352;-6.356;2022-09-13T18:00:39;16.00;99.90
35531;DHT22;21637;53.352;-6.356;2022-09-13T18:03:04;16.00;99.90
35531;DHT22;21637;53.352;-6.356;2022-09-13T18:05:30;15.90;99.90
35531;DHT22;21637;53.352;-6.356;2022-09-13T18:07:55;15.90;99.90
35531;DHT22;21637;53.352;-6.356;2022-09-13T18:10:21;15.90;99.90
35531;DHT22;21637;53.352;-6.356;2022-09-13T18:12:47;15.80;99.90
35531;DHT22;21637;53.352;-6.356;2022-09-13T18:15:12;15.80;99.90
35531;DHT22;21637;53.352;-6.356;2022-09-13T18:17:38;15.80;99.90
35531;DHT22;21637;53.352;-6.356;2022-09-13T18:20:04;15.80;99.90
35531;DHT22;21637;53.352;-6.356;2022-09-13T18:22:30;15.80;99.90
35531;DHT22;21637;53.352;-6.356;2022-09-13T18:24:55;15.70;99.90
35531;DHT22;21637;53.352;-6.356;2022-09-13T18:27:21;15.70;99.90
35531;DHT22;21637;53.352;-6.356;2022-09-13T18:29:46;15.60;99.90
35531;DHT22;21637;53.352;-6.356;2022-09-13T18:32:12;15.60;99.90